sensor_id;sensor_type;location;lat;lon;timestamp;P1;durP1;ratioP1;P2;durP2;ratioP2
46815;SDS011;32787;53.316;8.670;2023-03-01T00:00:14;12.02;;;5.63;;
46815;SDS011;32787;53.316;8.670;2023-03-01T00:02:40;13.50;;;5.97;;
46815;SDS011;32787;53.316;8.670;2023-03-01T00:05:05;14.50;;;5.97;;
46815;SDS011;32787;53.316;8.670;2023-03-01T00:07:32;12.70;;;5.95;;
46815;SDS011;32787;53.316;8.670;2023-03-01T00:09:58;14.80;;;6.28;;
46815;SDS011;32787;53.316;8.670;2023-03-01T00:12:23;12.63;;;6.28;;
46815;SDS011;32787;53.316;8.670;2023-03-01T00:14:49;17.27;;;6.97;;
46815;SDS011;32787;53.316;8.670;2023-03-01T00:17:15;14.00;;;6.40;;
46815;SDS011;32787;53.316;8.670;2023-03-01T00:19:40;14.65;;;6.75;;
46815;SDS011;32787;53.316;8.670;2023-03-01T00:22:06;15.85;;;6.97;;
46815;SDS011;32787;53.316;8.670;2023-03-01T00:24:31;14.18;;;6.57;;
46815;SDS011;32787;53.316;8.670;2023-03-01T00:26:57;15.50;;;7.35;;
46815;SDS011;32787;53.316;8.670;2023-03-01T00:29:23;19.52;;;8.73;;
46815;SDS011;32787;53.316;8.670;2023-03-01T00:31:49;16.02;;;8.93;;
46815;SDS011;32787;53.316;8.670;2023-03-01T00:34:15;17.83;;;8.52;;
46815;SDS011;32787;53.316;8.670;2023-03-01T00:36:41;17.17;;;7.65;;
46815;SDS011;32787;53.316;8.670;2023-03-01T00:39:10;15.32;;;7.90;;
46815;SDS011;32787;53.316;8.670;2023-03-01T00:41:37;17.70;;;8.18;;
46815;SDS011;32787;53.316;8.670;2023-03-01T00:44:03;15.25;;;7.30;;
46815;SDS011;32787;53.316;8.670;2023-03-01T00:46:29;17.08;;;7.95;;
46815;SDS011;32787;53.316;8.670;2023-03-01T00:48:55;14.80;;;7.20;;
46815;SDS011;32787;53.316;8.670;2023-03-01T00:51:22;17.45;;;7.38;;
46815;SDS011;32787;53.316;8.670;2023-03-01T00:53:51;14.07;;;6.88;;
46815;SDS011;32787;53.316;8.670;2023-03-01T00:56:18;17.23;;;7.75;;
46815;SDS011;32787;53.316;8.670;2023-03-01T00:58:45;15.00;;;7.15;;
46815;SDS011;32787;53.316;8.670;2023-03-01T01:01:12;13.85;;;6.72;;
46815;SDS011;32787;53.316;8.670;2023-03-01T01:04:15;14.05;;;7.15;;
46815;SDS011;32787;53.316;8.670;2023-03-01T01:06:40;15.50;;;7.03;;
46815;SDS011;32787;53.316;8.670;2023-03-01T01:09:11;13.60;;;7.60;;
46815;SDS011;32787;53.316;8.670;2023-03-01T01:11:42;15.80;;;7.18;;
46815;SDS011;32787;53.316;8.670;2023-03-01T01:14:09;12.82;;;6.95;;
46815;SDS011;32787;53.316;8.670;2023-03-01T01:16:35;14.95;;;7.00;;
46815;SDS011;32787;53.316;8.670;2023-03-01T01:19:00;15.55;;;7.68;;
46815;SDS011;32787;53.316;8.670;2023-03-01T01:21:26;14.07;;;6.93;;
46815;SDS011;32787;53.316;8.670;2023-03-01T01:23:52;14.20;;;7.70;;
46815;SDS011;32787;53.316;8.670;2023-03-01T01:26:19;14.73;;;7.47;;
46815;SDS011;32787;53.316;8.670;2023-03-01T01:28:47;14.82;;;6.90;;
46815;SDS011;32787;53.316;8.670;2023-03-01T01:31:13;13.98;;;7.47;;
46815;SDS011;32787;53.316;8.670;2023-03-01T01:33:39;13.05;;;7.13;;
46815;SDS011;32787;53.316;8.670;2023-03-01T01:36:05;13.65;;;6.65;;
46815;SDS011;32787;53.316;8.670;2023-03-01T01:38:31;12.93;;;7.25;;
46815;SDS011;32787;53.316;8.670;2023-03-01T01:40:57;13.95;;;7.20;;
46815;SDS011;32787;53.316;8.670;2023-03-01T01:43:24;12.88;;;7.32;;
46815;SDS011;32787;53.316;8.670;2023-03-01T01:48:56;14.75;;;7.85;;
46815;SDS011;32787;53.316;8.670;2023-03-01T01:51:28;14.40;;;7.97;;
46815;SDS011;32787;53.316;8.670;2023-03-01T01:54:03;17.60;;;7.47;;
46815;SDS011;32787;53.316;8.670;2023-03-01T01:56:37;13.05;;;7.53;;
46815;SDS011;32787;53.316;8.670;2023-03-01T01:59:06;18.50;;;8.15;;
46815;SDS011;32787;53.316;8.670;2023-03-01T02:01:32;15.60;;;7.82;;
46815;SDS011;32787;53.316;8.670;2023-03-01T02:03:58;15.77;;;8.05;;
46815;SDS011;32787;53.316;8.670;2023-03-01T02:06:32;14.43;;;7.07;;
46815;SDS011;32787;53.316;8.670;2023-03-01T02:09:03;14.52;;;7.53;;
46815;SDS011;32787;53.316;8.670;2023-03-01T02:11:33;14.80;;;7.40;;
46815;SDS011;32787;53.316;8.670;2023-03-01T02:13:59;14.93;;;7.40;;
46815;SDS011;32787;53.316;8.670;2023-03-01T02:16:24;13.73;;;7.57;;
46815;SDS011;32787;53.316;8.670;2023-03-01T02:18:51;15.35;;;7.90;;
46815;SDS011;32787;53.316;8.670;2023-03-01T02:21:36;15.13;;;7.35;;
46815;SDS011;32787;53.316;8.670;2023-03-01T02:24:23;14.07;;;7.82;;
46815;SDS011;32787;53.316;8.670;2023-03-01T02:26:52;13.68;;;7.50;;
46815;SDS011;32787;53.316;8.670;2023-03-01T02:29:20;14.90;;;7.72;;
46815;SDS011;32787;53.316;8.670;2023-03-01T02:31:47;16.00;;;7.65;;
46815;SDS011;32787;53.316;8.670;2023-03-01T02:34:21;14.18;;;7.63;;
46815;SDS011;32787;53.316;8.670;2023-03-01T02:39:29;15.88;;;7.97;;
46815;SDS011;32787;53.316;8.670;2023-03-01T02:41:58;16.65;;;7.78;;
46815;SDS011;32787;53.316;8.670;2023-03-01T02:44:26;14.95;;;7.82;;
46815;SDS011;32787;53.316;8.670;2023-03-01T02:46:52;14.65;;;7.40;;
46815;SDS011;32787;53.316;8.670;2023-03-01T02:49:24;16.60;;;8.25;;
46815;SDS011;32787;53.316;8.670;2023-03-01T02:54:46;13.57;;;8.05;;
46815;SDS011;32787;53.316;8.670;2023-03-01T02:57:23;16.30;;;8.40;;
46815;SDS011;32787;53.316;8.670;2023-03-01T02:59:49;15.32;;;8.18;;
46815;SDS011;32787;53.316;8.670;2023-03-01T03:05:05;16.30;;;8.70;;
46815;SDS011;32787;53.316;8.670;2023-03-01T03:07:33;16.45;;;8.68;;
46815;SDS011;32787;53.316;8.670;2023-03-01T03:10:00;15.18;;;8.05;;
46815;SDS011;32787;53.316;8.670;2023-03-01T03:12:27;15.77;;;8.13;;
46815;SDS011;32787;53.316;8.670;2023-03-01T03:14:52;16.40;;;8.43;;
46815;SDS011;32787;53.316;8.670;2023-03-01T03:17:18;15.75;;;8.23;;
46815;SDS011;32787;53.316;8.670;2023-03-01T03:19:44;17.17;;;8.30;;
46815;SDS011;32787;53.316;8.670;2023-03-01T03:22:11;14.50;;;7.22;;
46815;SDS011;32787;53.316;8.670;2023-03-01T03:24:37;18.63;;;7.85;;
46815;SDS011;32787;53.316;8.670;2023-03-01T03:27:06;16.40;;;7.80;;
46815;SDS011;32787;53.316;8.670;2023-03-01T03:29:32;16.87;;;7.23;;
46815;SDS011;32787;53.316;8.670;2023-03-01T03:31:58;18.45;;;7.70;;
46815;SDS011;32787;53.316;8.670;2023-03-01T03:34:24;15.25;;;7.93;;
46815;SDS011;32787;53.316;8.670;2023-03-01T03:36:53;15.10;;;7.72;;
46815;SDS011;32787;53.316;8.670;2023-03-01T03:39:24;15.98;;;8.13;;
46815;SDS011;32787;53.316;8.670;2023-03-01T03:41:52;15.80;;;8.10;;
46815;SDS011;32787;53.316;8.670;2023-03-01T03:44:18;14.93;;;8.20;;
46815;SDS011;32787;53.316;8.670;2023-03-01T03:46:44;20.17;;;9.25;;
46815;SDS011;32787;53.316;8.670;2023-03-01T03:49:10;17.25;;;9.10;;
46815;SDS011;32787;53.316;8.670;2023-03-01T03:51:35;14.18;;;8.02;;
46815;SDS011;32787;53.316;8.670;2023-03-01T03:54:01;16.58;;;8.20;;
46815;SDS011;32787;53.316;8.670;2023-03-01T03:56:26;13.95;;;7.63;;
46815;SDS011;32787;53.316;8.670;2023-03-01T03:58:52;18.35;;;8.70;;
46815;SDS011;32787;53.316;8.670;2023-03-01T04:01:18;14.40;;;7.78;;
46815;SDS011;32787;53.316;8.670;2023-03-01T04:03:43;16.10;;;8.13;;
46815;SDS011;32787;53.316;8.670;2023-03-01T04:06:12;14.38;;;7.65;;
46815;SDS011;32787;53.316;8.670;2023-03-01T04:08:39;16.42;;;8.13;;
46815;SDS011;32787;53.316;8.670;2023-03-01T04:11:05;14.25;;;7.57;;
46815;SDS011;32787;53.316;8.670;2023-03-01T04:13:55;14.17;;;7.67;;
46815;SDS011;32787;53.316;8.670;2023-03-01T04:16:22;16.85;;;7.90;;
46815;SDS011;32787;53.316;8.670;2023-03-01T04:18:48;15.40;;;7.45;;
46815;SDS011;32787;53.316;8.670;2023-03-01T04:21:14;14.10;;;7.75;;
46815;SDS011;32787;53.316;8.670;2023-03-01T04:23:39;14.98;;;8.30;;
46815;SDS011;32787;53.316;8.670;2023-03-01T04:26:06;13.82;;;7.15;;
46815;SDS011;32787;53.316;8.670;2023-03-01T04:28:33;13.60;;;7.65;;
46815;SDS011;32787;53.316;8.670;2023-03-01T04:31:05;15.37;;;7.97;;
46815;SDS011;32787;53.316;8.670;2023-03-01T04:33:38;15.52;;;8.20;;
46815;SDS011;32787;53.316;8.670;2023-03-01T04:36:07;15.80;;;7.40;;
46815;SDS011;32787;53.316;8.670;2023-03-01T04:38:34;15.27;;;7.25;;
46815;SDS011;32787;53.316;8.670;2023-03-01T04:41:02;17.42;;;7.32;;
46815;SDS011;32787;53.316;8.670;2023-03-01T04:46:09;10.40;;;5.80;;
46815;SDS011;32787;53.316;8.670;2023-03-01T04:48:38;15.23;;;6.45;;
46815;SDS011;32787;53.316;8.670;2023-03-01T04:51:05;13.95;;;6.63;;
46815;SDS011;32787;53.316;8.670;2023-03-01T04:53:32;13.73;;;6.75;;
46815;SDS011;32787;53.316;8.670;2023-03-01T04:55:58;13.32;;;6.78;;
46815;SDS011;32787;53.316;8.670;2023-03-01T04:58:27;13.13;;;6.70;;
46815;SDS011;32787;53.316;8.670;2023-03-01T05:00:53;15.80;;;6.68;;
46815;SDS011;32787;53.316;8.670;2023-03-01T05:03:19;12.38;;;6.63;;
46815;SDS011;32787;53.316;8.670;2023-03-01T05:05:46;12.95;;;6.53;;
46815;SDS011;32787;53.316;8.670;2023-03-01T05:08:14;11.95;;;6.13;;
46815;SDS011;32787;53.316;8.670;2023-03-01T05:10:43;13.77;;;6.40;;
46815;SDS011;32787;53.316;8.670;2023-03-01T05:13:11;15.50;;;7.68;;
46815;SDS011;32787;53.316;8.670;2023-03-01T05:15:38;15.85;;;7.15;;
46815;SDS011;32787;53.316;8.670;2023-03-01T05:18:04;11.60;;;6.72;;
46815;SDS011;32787;53.316;8.670;2023-03-01T05:20:36;14.30;;;6.68;;
46815;SDS011;32787;53.316;8.670;2023-03-01T05:23:02;13.00;;;6.45;;
46815;SDS011;32787;53.316;8.670;2023-03-01T05:25:30;14.82;;;7.50;;
46815;SDS011;32787;53.316;8.670;2023-03-01T05:27:58;14.13;;;7.20;;
46815;SDS011;32787;53.316;8.670;2023-03-01T05:30:29;13.90;;;6.20;;
46815;SDS011;32787;53.316;8.670;2023-03-01T05:32:58;11.30;;;6.00;;
46815;SDS011;32787;53.316;8.670;2023-03-01T05:35:24;15.15;;;6.35;;
46815;SDS011;32787;53.316;8.670;2023-03-01T05:37:49;14.45;;;6.63;;
46815;SDS011;32787;53.316;8.670;2023-03-01T05:40:17;10.85;;;5.85;;
46815;SDS011;32787;53.316;8.670;2023-03-01T05:42:45;13.70;;;6.45;;
46815;SDS011;32787;53.316;8.670;2023-03-01T05:45:12;13.98;;;6.43;;
46815;SDS011;32787;53.316;8.670;2023-03-01T05:47:39;13.00;;;6.55;;
46815;SDS011;32787;53.316;8.670;2023-03-01T05:50:12;14.50;;;6.78;;
46815;SDS011;32787;53.316;8.670;2023-03-01T05:52:43;17.15;;;7.18;;
46815;SDS011;32787;53.316;8.670;2023-03-01T05:55:10;12.68;;;6.63;;
46815;SDS011;32787;53.316;8.670;2023-03-01T05:57:35;14.85;;;6.82;;
46815;SDS011;32787;53.316;8.670;2023-03-01T06:00:01;13.70;;;6.78;;
46815;SDS011;32787;53.316;8.670;2023-03-01T06:02:28;13.85;;;7.07;;
46815;SDS011;32787;53.316;8.670;2023-03-01T06:04:54;14.68;;;7.40;;
46815;SDS011;32787;53.316;8.670;2023-03-01T06:07:20;20.67;;;7.18;;
46815;SDS011;32787;53.316;8.670;2023-03-01T06:09:46;12.73;;;6.15;;
46815;SDS011;32787;53.316;8.670;2023-03-01T06:12:11;14.27;;;6.88;;
46815;SDS011;32787;53.316;8.670;2023-03-01T06:14:37;14.00;;;6.68;;
46815;SDS011;32787;53.316;8.670;2023-03-01T06:17:03;17.08;;;7.43;;
46815;SDS011;32787;53.316;8.670;2023-03-01T06:19:28;14.98;;;6.45;;
46815;SDS011;32787;53.316;8.670;2023-03-01T06:21:54;15.38;;;6.35;;
46815;SDS011;32787;53.316;8.670;2023-03-01T06:24:19;17.60;;;7.03;;
46815;SDS011;32787;53.316;8.670;2023-03-01T06:26:45;16.77;;;7.30;;
46815;SDS011;32787;53.316;8.670;2023-03-01T06:29:10;19.17;;;8.02;;
46815;SDS011;32787;53.316;8.670;2023-03-01T06:31:36;17.38;;;7.72;;
46815;SDS011;32787;53.316;8.670;2023-03-01T06:34:02;15.88;;;7.53;;
46815;SDS011;32787;53.316;8.670;2023-03-01T06:36:27;14.13;;;7.22;;
46815;SDS011;32787;53.316;8.670;2023-03-01T06:38:53;15.45;;;7.47;;
46815;SDS011;32787;53.316;8.670;2023-03-01T06:41:18;14.77;;;7.43;;
46815;SDS011;32787;53.316;8.670;2023-03-01T06:43:44;14.43;;;7.45;;
46815;SDS011;32787;53.316;8.670;2023-03-01T06:46:10;14.60;;;7.20;;
46815;SDS011;32787;53.316;8.670;2023-03-01T06:48:35;13.55;;;6.88;;
46815;SDS011;32787;53.316;8.670;2023-03-01T06:51:01;15.05;;;6.40;;
46815;SDS011;32787;53.316;8.670;2023-03-01T06:53:27;14.65;;;7.28;;
46815;SDS011;32787;53.316;8.670;2023-03-01T06:55:57;15.63;;;7.35;;
46815;SDS011;32787;53.316;8.670;2023-03-01T06:58:24;15.50;;;7.18;;
46815;SDS011;32787;53.316;8.670;2023-03-01T07:00:49;17.35;;;7.78;;
46815;SDS011;32787;53.316;8.670;2023-03-01T07:03:15;16.20;;;7.07;;
46815;SDS011;32787;53.316;8.670;2023-03-01T07:05:40;15.02;;;7.47;;
46815;SDS011;32787;53.316;8.670;2023-03-01T07:08:06;15.32;;;7.32;;
46815;SDS011;32787;53.316;8.670;2023-03-01T07:10:32;14.68;;;7.20;;
46815;SDS011;32787;53.316;8.670;2023-03-01T07:12:58;16.05;;;7.25;;
46815;SDS011;32787;53.316;8.670;2023-03-01T07:15:24;18.20;;;9.23;;
46815;SDS011;32787;53.316;8.670;2023-03-01T07:17:50;21.35;;;9.40;;
46815;SDS011;32787;53.316;8.670;2023-03-01T07:20:17;15.73;;;8.60;;
46815;SDS011;32787;53.316;8.670;2023-03-01T07:22:43;17.35;;;7.88;;
46815;SDS011;32787;53.316;8.670;2023-03-01T07:25:09;13.70;;;7.22;;
46815;SDS011;32787;53.316;8.670;2023-03-01T07:27:36;13.25;;;7.63;;
46815;SDS011;32787;53.316;8.670;2023-03-01T07:30:02;13.52;;;8.05;;
46815;SDS011;32787;53.316;8.670;2023-03-01T07:32:28;15.20;;;7.43;;
46815;SDS011;32787;53.316;8.670;2023-03-01T07:34:53;16.23;;;7.75;;
46815;SDS011;32787;53.316;8.670;2023-03-01T07:37:19;14.90;;;7.53;;
46815;SDS011;32787;53.316;8.670;2023-03-01T07:39:44;16.52;;;7.63;;
46815;SDS011;32787;53.316;8.670;2023-03-01T07:42:10;13.57;;;7.68;;
46815;SDS011;32787;53.316;8.670;2023-03-01T07:44:36;14.95;;;8.13;;
46815;SDS011;32787;53.316;8.670;2023-03-01T07:47:02;16.42;;;8.55;;
46815;SDS011;32787;53.316;8.670;2023-03-01T07:49:28;14.73;;;8.20;;
46815;SDS011;32787;53.316;8.670;2023-03-01T07:51:54;12.48;;;6.35;;
46815;SDS011;32787;53.316;8.670;2023-03-01T07:54:20;13.77;;;6.60;;
46815;SDS011;32787;53.316;8.670;2023-03-01T07:56:46;12.10;;;6.93;;
46815;SDS011;32787;53.316;8.670;2023-03-01T07:59:11;14.32;;;7.05;;
46815;SDS011;32787;53.316;8.670;2023-03-01T08:01:37;16.55;;;8.07;;
46815;SDS011;32787;53.316;8.670;2023-03-01T08:04:03;14.43;;;8.50;;
46815;SDS011;32787;53.316;8.670;2023-03-01T08:06:33;15.63;;;8.35;;
46815;SDS011;32787;53.316;8.670;2023-03-01T08:08:59;17.77;;;8.25;;
46815;SDS011;32787;53.316;8.670;2023-03-01T08:11:25;13.90;;;7.35;;
46815;SDS011;32787;53.316;8.670;2023-03-01T08:13:53;15.57;;;8.30;;
46815;SDS011;32787;53.316;8.670;2023-03-01T08:16:18;17.67;;;9.13;;
46815;SDS011;32787;53.316;8.670;2023-03-01T08:18:44;16.60;;;8.02;;
46815;SDS011;32787;53.316;8.670;2023-03-01T08:21:14;14.18;;;7.45;;
46815;SDS011;32787;53.316;8.670;2023-03-01T08:23:41;16.13;;;8.43;;
46815;SDS011;32787;53.316;8.670;2023-03-01T08:26:09;16.83;;;8.05;;
46815;SDS011;32787;53.316;8.670;2023-03-01T08:28:37;16.58;;;9.27;;
46815;SDS011;32787;53.316;8.670;2023-03-01T08:31:03;16.27;;;8.70;;
46815;SDS011;32787;53.316;8.670;2023-03-01T08:33:40;17.63;;;11.13;;
46815;SDS011;32787;53.316;8.670;2023-03-01T08:36:05;14.75;;;9.57;;
46815;SDS011;32787;53.316;8.670;2023-03-01T08:38:32;13.75;;;8.27;;
46815;SDS011;32787;53.316;8.670;2023-03-01T08:40:59;16.02;;;9.55;;
46815;SDS011;32787;53.316;8.670;2023-03-01T08:43:26;15.98;;;8.85;;
46815;SDS011;32787;53.316;8.670;2023-03-01T08:45:52;14.43;;;8.73;;
46815;SDS011;32787;53.316;8.670;2023-03-01T08:48:17;15.35;;;8.10;;
46815;SDS011;32787;53.316;8.670;2023-03-01T08:50:43;12.98;;;8.40;;
46815;SDS011;32787;53.316;8.670;2023-03-01T08:53:09;17.05;;;9.50;;
46815;SDS011;32787;53.316;8.670;2023-03-01T08:55:34;17.77;;;10.23;;
46815;SDS011;32787;53.316;8.670;2023-03-01T08:58:00;14.88;;;9.05;;
46815;SDS011;32787;53.316;8.670;2023-03-01T09:00:26;16.08;;;9.05;;
46815;SDS011;32787;53.316;8.670;2023-03-01T09:02:51;15.68;;;8.60;;
46815;SDS011;32787;53.316;8.670;2023-03-01T09:05:17;17.42;;;9.65;;
46815;SDS011;32787;53.316;8.670;2023-03-01T09:07:42;15.73;;;9.18;;
46815;SDS011;32787;53.316;8.670;2023-03-01T09:10:08;16.13;;;9.40;;
46815;SDS011;32787;53.316;8.670;2023-03-01T09:12:34;15.75;;;9.52;;
46815;SDS011;32787;53.316;8.670;2023-03-01T09:15:00;16.35;;;9.38;;
46815;SDS011;32787;53.316;8.670;2023-03-01T09:17:25;16.17;;;8.90;;
46815;SDS011;32787;53.316;8.670;2023-03-01T09:19:51;15.90;;;9.38;;
46815;SDS011;32787;53.316;8.670;2023-03-01T09:22:17;15.73;;;9.30;;
46815;SDS011;32787;53.316;8.670;2023-03-01T09:24:42;20.33;;;9.50;;
46815;SDS011;32787;53.316;8.670;2023-03-01T09:27:08;16.85;;;9.07;;
46815;SDS011;32787;53.316;8.670;2023-03-01T09:29:36;17.25;;;9.30;;
46815;SDS011;32787;53.316;8.670;2023-03-01T09:32:02;18.23;;;10.05;;
46815;SDS011;32787;53.316;8.670;2023-03-01T09:34:28;17.88;;;9.90;;
46815;SDS011;32787;53.316;8.670;2023-03-01T09:36:54;18.83;;;10.10;;
46815;SDS011;32787;53.316;8.670;2023-03-01T09:39:19;28.02;;;12.00;;
46815;SDS011;32787;53.316;8.670;2023-03-01T09:42:01;48.85;;;23.17;;
46815;SDS011;32787;53.316;8.670;2023-03-01T09:47:17;75.95;;;34.30;;
46815;SDS011;32787;53.316;8.670;2023-03-01T09:49:49;22.30;;;11.32;;
46815;SDS011;32787;53.316;8.670;2023-03-01T09:56:05;24.90;;;12.35;;
46815;SDS011;32787;53.316;8.670;2023-03-01T10:06:43;27.88;;;12.95;;
46815;SDS011;32787;53.316;8.670;2023-03-01T10:09:16;26.02;;;13.43;;
46815;SDS011;32787;53.316;8.670;2023-03-01T10:11:44;31.55;;;15.35;;
46815;SDS011;32787;53.316;8.670;2023-03-01T10:14:23;29.00;;;13.98;;
46815;SDS011;32787;53.316;8.670;2023-03-01T10:19:29;27.92;;;13.60;;
46815;SDS011;32787;53.316;8.670;2023-03-01T10:22:05;29.13;;;13.55;;
46815;SDS011;32787;53.316;8.670;2023-03-01T10:24:43;24.48;;;13.27;;
46815;SDS011;32787;53.316;8.670;2023-03-01T10:27:24;26.67;;;13.90;;
46815;SDS011;32787;53.316;8.670;2023-03-01T10:30:13;26.20;;;14.32;;
46815;SDS011;32787;53.316;8.670;2023-03-01T10:32:44;24.25;;;13.18;;
46815;SDS011;32787;53.316;8.670;2023-03-01T10:38:03;25.75;;;13.77;;
46815;SDS011;32787;53.316;8.670;2023-03-01T10:40:28;42.45;;;21.00;;
46815;SDS011;32787;53.316;8.670;2023-03-01T10:42:54;127.95;;;56.63;;
46815;SDS011;32787;53.316;8.670;2023-03-01T10:50:51;21.08;;;12.30;;
46815;SDS011;32787;53.316;8.670;2023-03-01T10:53:28;22.52;;;12.15;;
46815;SDS011;32787;53.316;8.670;2023-03-01T10:58:30;15.73;;;8.18;;
46815;SDS011;32787;53.316;8.670;2023-03-01T11:01:39;19.95;;;10.98;;
46815;SDS011;32787;53.316;8.670;2023-03-01T11:04:02;17.25;;;9.15;;
46815;SDS011;32787;53.316;8.670;2023-03-01T11:06:32;17.27;;;9.25;;
46815;SDS011;32787;53.316;8.670;2023-03-01T11:09:01;17.27;;;10.35;;
46815;SDS011;32787;53.316;8.670;2023-03-01T11:11:43;21.73;;;12.32;;
46815;SDS011;32787;53.316;8.670;2023-03-01T11:14:16;19.17;;;9.45;;
46815;SDS011;32787;53.316;8.670;2023-03-01T11:16:46;18.40;;;10.20;;
46815;SDS011;32787;53.316;8.670;2023-03-01T11:19:22;17.40;;;9.65;;
46815;SDS011;32787;53.316;8.670;2023-03-01T11:24:30;20.63;;;10.98;;
46815;SDS011;32787;53.316;8.670;2023-03-01T11:27:14;18.48;;;10.95;;
46815;SDS011;32787;53.316;8.670;2023-03-01T11:29:59;20.83;;;11.60;;
46815;SDS011;32787;53.316;8.670;2023-03-01T11:32:42;21.08;;;12.27;;
46815;SDS011;32787;53.316;8.670;2023-03-01T11:35:15;21.75;;;11.40;;
46815;SDS011;32787;53.316;8.670;2023-03-01T11:38:30;23.45;;;12.45;;
46815;SDS011;32787;53.316;8.670;2023-03-01T11:40:39;22.58;;;12.98;;
46815;SDS011;32787;53.316;8.670;2023-03-01T11:43:14;24.15;;;12.18;;
46815;SDS011;32787;53.316;8.670;2023-03-01T11:48:24;24.10;;;12.95;;
46815;SDS011;32787;53.316;8.670;2023-03-01T11:51:14;24.73;;;13.23;;
46815;SDS011;32787;53.316;8.670;2023-03-01T11:56:46;22.70;;;13.15;;
46815;SDS011;32787;53.316;8.670;2023-03-01T11:59:36;24.65;;;13.52;;
46815;SDS011;32787;53.316;8.670;2023-03-01T12:10:34;27.52;;;15.93;;
46815;SDS011;32787;53.316;8.670;2023-03-01T12:16:31;26.92;;;15.18;;
46815;SDS011;32787;53.316;8.670;2023-03-01T12:19:14;30.58;;;17.20;;
46815;SDS011;32787;53.316;8.670;2023-03-01T12:24:41;27.13;;;15.52;;
46815;SDS011;32787;53.316;8.670;2023-03-01T12:43:37;40.25;;;23.27;;
46815;SDS011;32787;53.316;8.670;2023-03-01T12:49:13;28.25;;;16.83;;
46815;SDS011;32787;53.316;8.670;2023-03-01T12:54:45;26.50;;;16.92;;
46815;SDS011;32787;53.316;8.670;2023-03-01T12:57:18;28.30;;;17.15;;
46815;SDS011;32787;53.316;8.670;2023-03-01T13:07:41;29.75;;;18.75;;
46815;SDS011;32787;53.316;8.670;2023-03-01T13:10:43;33.40;;;20.05;;
46815;SDS011;32787;53.316;8.670;2023-03-01T13:13:13;31.67;;;19.35;;
46815;SDS011;32787;53.316;8.670;2023-03-01T13:15:39;29.90;;;18.65;;
46815;SDS011;32787;53.316;8.670;2023-03-01T13:23:13;31.63;;;19.33;;
46815;SDS011;32787;53.316;8.670;2023-03-01T13:29:10;33.90;;;18.80;;
46815;SDS011;32787;53.316;8.670;2023-03-01T13:33:41;31.42;;;19.45;;
46815;SDS011;32787;53.316;8.670;2023-03-01T13:36:56;31.00;;;18.90;;
46815;SDS011;32787;53.316;8.670;2023-03-01T13:39:03;34.13;;;19.77;;
46815;SDS011;32787;53.316;8.670;2023-03-01T13:41:52;32.60;;;19.50;;
46815;SDS011;32787;53.316;8.670;2023-03-01T13:46:59;30.48;;;18.67;;
46815;SDS011;32787;53.316;8.670;2023-03-01T13:49:42;32.45;;;19.15;;
46815;SDS011;32787;53.316;8.670;2023-03-01T13:54:58;35.72;;;19.70;;
46815;SDS011;32787;53.316;8.670;2023-03-01T13:57:28;30.80;;;18.88;;
46815;SDS011;32787;53.316;8.670;2023-03-01T13:59:58;32.08;;;19.45;;
46815;SDS011;32787;53.316;8.670;2023-03-01T14:02:24;33.20;;;19.95;;
46815;SDS011;32787;53.316;8.670;2023-03-01T14:04:56;33.75;;;20.33;;
46815;SDS011;32787;53.316;8.670;2023-03-01T14:07:23;31.08;;;19.60;;
46815;SDS011;32787;53.316;8.670;2023-03-01T14:09:54;29.67;;;19.17;;
46815;SDS011;32787;53.316;8.670;2023-03-01T14:15:42;32.28;;;19.35;;
46815;SDS011;32787;53.316;8.670;2023-03-01T14:18:32;28.92;;;17.85;;
46815;SDS011;32787;53.316;8.670;2023-03-01T14:21:08;30.73;;;18.45;;
46815;SDS011;32787;53.316;8.670;2023-03-01T14:23:34;32.28;;;19.17;;
46815;SDS011;32787;53.316;8.670;2023-03-01T14:26:03;30.40;;;17.55;;
46815;SDS011;32787;53.316;8.670;2023-03-01T14:28:29;31.38;;;18.63;;
46815;SDS011;32787;53.316;8.670;2023-03-01T14:31:02;30.52;;;18.75;;
46815;SDS011;32787;53.316;8.670;2023-03-01T14:35:59;31.40;;;18.92;;
46815;SDS011;32787;53.316;8.670;2023-03-01T14:43:35;26.80;;;17.02;;
46815;SDS011;32787;53.316;8.670;2023-03-01T14:46:15;30.35;;;17.52;;
46815;SDS011;32787;53.316;8.670;2023-03-01T14:48:43;31.77;;;18.38;;
46815;SDS011;32787;53.316;8.670;2023-03-01T14:51:09;27.15;;;16.65;;
46815;SDS011;32787;53.316;8.670;2023-03-01T14:53:37;32.45;;;18.20;;
46815;SDS011;32787;53.316;8.670;2023-03-01T14:56:02;30.15;;;18.50;;
46815;SDS011;32787;53.316;8.670;2023-03-01T14:58:28;26.73;;;17.05;;
46815;SDS011;32787;53.316;8.670;2023-03-01T15:00:58;31.35;;;18.35;;
46815;SDS011;32787;53.316;8.670;2023-03-01T15:06:03;28.10;;;17.83;;
46815;SDS011;32787;53.316;8.670;2023-03-01T15:08:31;26.98;;;17.60;;
46815;SDS011;32787;53.316;8.670;2023-03-01T15:11:16;30.33;;;17.25;;
46815;SDS011;32787;53.316;8.670;2023-03-01T15:13:52;30.63;;;17.40;;
46815;SDS011;32787;53.316;8.670;2023-03-01T15:18:45;28.23;;;17.10;;
46815;SDS011;32787;53.316;8.670;2023-03-01T15:21:23;28.55;;;17.20;;
46815;SDS011;32787;53.316;8.670;2023-03-01T15:26:43;27.73;;;16.73;;
46815;SDS011;32787;53.316;8.670;2023-03-01T15:29:26;29.17;;;16.55;;
46815;SDS011;32787;53.316;8.670;2023-03-01T15:32:03;27.63;;;16.50;;
46815;SDS011;32787;53.316;8.670;2023-03-01T15:34:49;29.00;;;16.65;;
46815;SDS011;32787;53.316;8.670;2023-03-01T15:39:59;30.45;;;18.25;;
46815;SDS011;32787;53.316;8.670;2023-03-01T15:47:34;29.80;;;18.05;;
46815;SDS011;32787;53.316;8.670;2023-03-01T15:50:04;29.85;;;17.42;;
46815;SDS011;32787;53.316;8.670;2023-03-01T15:52:35;28.25;;;17.10;;
46815;SDS011;32787;53.316;8.670;2023-03-01T15:55:10;33.60;;;18.88;;
46815;SDS011;32787;53.316;8.670;2023-03-01T15:57:43;33.55;;;17.90;;
46815;SDS011;32787;53.316;8.670;2023-03-01T16:00:10;30.23;;;17.27;;
46815;SDS011;32787;53.316;8.670;2023-03-01T16:02:38;30.95;;;16.70;;
46815;SDS011;32787;53.316;8.670;2023-03-01T16:05:05;32.50;;;17.38;;
46815;SDS011;32787;53.316;8.670;2023-03-01T16:07:31;28.90;;;16.98;;
46815;SDS011;32787;53.316;8.670;2023-03-01T16:09:57;30.65;;;17.20;;
46815;SDS011;32787;53.316;8.670;2023-03-01T16:12:22;30.60;;;16.67;;
46815;SDS011;32787;53.316;8.670;2023-03-01T16:14:49;27.63;;;15.82;;
46815;SDS011;32787;53.316;8.670;2023-03-01T16:17:15;30.48;;;17.00;;
46815;SDS011;32787;53.316;8.670;2023-03-01T16:19:40;35.10;;;20.35;;
46815;SDS011;32787;53.316;8.670;2023-03-01T16:22:06;32.15;;;17.58;;
46815;SDS011;32787;53.316;8.670;2023-03-01T16:24:34;31.75;;;16.40;;
46815;SDS011;32787;53.316;8.670;2023-03-01T16:27:00;32.80;;;17.17;;
46815;SDS011;32787;53.316;8.670;2023-03-01T16:29:26;32.17;;;17.73;;
46815;SDS011;32787;53.316;8.670;2023-03-01T16:31:54;28.38;;;15.60;;
46815;SDS011;32787;53.316;8.670;2023-03-01T16:34:20;30.20;;;17.00;;
46815;SDS011;32787;53.316;8.670;2023-03-01T16:36:47;32.72;;;20.75;;
46815;SDS011;32787;53.316;8.670;2023-03-01T16:39:12;29.65;;;17.02;;
46815;SDS011;32787;53.316;8.670;2023-03-01T16:41:38;28.52;;;16.90;;
46815;SDS011;32787;53.316;8.670;2023-03-01T16:44:04;28.83;;;17.38;;
46815;SDS011;32787;53.316;8.670;2023-03-01T16:46:29;29.30;;;17.25;;
46815;SDS011;32787;53.316;8.670;2023-03-01T16:48:55;35.88;;;18.40;;
46815;SDS011;32787;53.316;8.670;2023-03-01T16:51:21;30.50;;;17.38;;
46815;SDS011;32787;53.316;8.670;2023-03-01T16:53:48;30.60;;;16.98;;
46815;SDS011;32787;53.316;8.670;2023-03-01T16:56:14;31.30;;;18.67;;
46815;SDS011;32787;53.316;8.670;2023-03-01T16:58:41;29.00;;;17.65;;